Time;durP1;ratioP1;P1;durP2;ratioP2;P2;SDS_P1;SDS_P2;PMS_P1;PMS_P2;Temp;Humidity;BMP_temperature;BMP_pressure;BME280_temperature;BME280_humidity;BME280_pressure;Samples;Min_cycle;Max_cycle;Signal;HPM_P1;HPM_P2
2021/07/31 00:00:21;;;;;;;7.45;4.7;;;;;;;18.45;83.06641;94861.02;;;;
2021/07/31 00:01:21;;;;;;;4.95;4.5;;;;;;;18.09;85.32031;94858.06;;;;
2021/07/31 00:02:23;;;;;;;4.95;4.5;;;;;;;18.09;85.32031;94858.06;;;;
2021/07/31 00:03:23;;;;;;;4.95;4.5;;;;;;;18.09;85.32031;94858.06;;;;
2021/07/31 00:04:24;;;;;;;4.95;4.5;;;;;;;18.09;85.32031;94858.06;;;;
2021/07/31 00:05:24;;;;;;;4.95;4.5;;;;;;;18.09;85.32031;94858.06;;;;
2021/07/31 00:06:25;;;;;;;4.95;4.5;;;;;;;18.09;85.32031;94858.06;;;;
2021/07/31 00:07:26;;;;;;;4.95;4.5;;;;;;;18.09;85.32031;94858.06;;;;
2021/07/31 00:08:28;;;;;;;4.95;4.5;;;;;;;18.09;85.32031;94858.06;;;;
2021/07/31 00:09:28;;;;;;;4.95;4.5;;;;;;;18.09;85.32031;94858.06;;;;
2021/07/31 00:10:29;;;;;;;4.95;4.5;;;;;;;18.09;85.32031;94858.06;;;;
2021/07/31 00:11:29;;;;;;;6.7;5.550001;;;;;;;17.88;86.49512;94854.35;;;;
2021/07/31 00:12:30;;;;;;;6.7;5.550001;;;;;;;17.88;86.49512;94854.35;;;;
2021/07/31 00:13:30;;;;;;;6.7;5.550001;;;;;;;17.88;86.49512;94854.35;;;;
2021/07/31 00:14:31;;;;;;;6.7;5.550001;;;;;;;17.88;86.49512;94854.35;;;;
2021/07/31 00:15:32;;;;;;;6.7;5.550001;;;;;;;17.88;86.49512;94854.35;;;;
2021/07/31 00:16:32;;;;;;;6.7;5.550001;;;;;;;17.88;86.49512;94854.35;;;;
2021/07/31 00:17:33;;;;;;;6.7;5.550001;;;;;;;17.88;86.49512;94854.35;;;;
2021/07/31 00:18:33;;;;;;;6.7;5.550001;;;;;;;17.88;86.49512;94854.35;;;;
2021/07/31 00:19:34;;;;;;;6.7;5.550001;;;;;;;17.88;86.49512;94854.35;;;;
2021/07/31 00:20:35;;;;;;;6.7;5.550001;;;;;;;17.88;86.49512;94854.35;;;;
2021/07/31 00:21:35;;;;;;;6.7;5.550001;;;;;;;17.88;86.49512;94854.35;;;;
2021/07/31 00:22:36;;;;;;;5.95;5.099999;;;;;;;17.57;88.46191;94841.62;;;;
2021/07/31 00:23:36;;;;;;;5.95;5.099999;;;;;;;17.57;88.46191;94841.62;;;;
2021/07/31 00:24:37;;;;;;;5.95;5.099999;;;;;;;17.57;88.46191;94841.62;;;;
2021/07/31 00:25:38;;;;;;;5.95;5.099999;;;;;;;17.57;88.46191;94841.62;;;;
2021/07/31 00:26:38;;;;;;;5.95;5.099999;;;;;;;17.57;88.46191;94841.62;;;;
2021/07/31 00:27:39;;;;;;;5.95;5.099999;;;;;;;17.57;88.46191;94841.62;;;;
2021/07/31 00:28:39;;;;;;;5.95;5.099999;;;;;;;17.57;88.46191;94841.62;;;;
2021/07/31 00:29:40;;;;;;;5.95;5.099999;;;;;;;17.57;88.46191;94841.62;;;;
2021/07/31 00:30:40;;;;;;;5.95;5.099999;;;;;;;17.57;88.46191;94841.62;;;;
2021/07/31 00:31:41;;;;;;;5.95;5.099999;;;;;;;17.57;88.46191;94841.62;;;;
2021/07/31 00:32:41;;;;;;;6.15;5.450001;;;;;;;17.38;90.79199;94832.08;;;;
2021/07/31 00:33:42;;;;;;;6.15;5.450001;;;;;;;17.38;90.79199;94832.08;;;;
2021/07/31 00:34:42;;;;;;;6.15;5.450001;;;;;;;17.38;90.79199;94832.08;;;;
2021/07/31 00:35:43;;;;;;;6.15;5.450001;;;;;;;17.38;90.79199;94832.08;;;;
2021/07/31 00:36:43;;;;;;;6.15;5.450001;;;;;;;17.38;90.79199;94832.08;;;;
2021/07/31 00:37:44;;;;;;;6.15;5.450001;;;;;;;17.38;90.79199;94832.08;;;;
2021/07/31 00:38:45;;;;;;;6.15;5.450001;;;;;;;17.38;90.79199;94832.08;;;;
2021/07/31 00:39:45;;;;;;;6.15;5.450001;;;;;;;17.38;90.79199;94832.08;;;;
2021/07/31 00:40:46;;;;;;;6.15;5.450001;;;;;;;17.38;90.79199;94832.08;;;;
2021/07/31 00:41:46;;;;;;;6.15;5.450001;;;;;;;17.38;90.79199;94832.08;;;;
2021/07/31 00:42:47;;;;;;;6.15;5.450001;;;;;;;17.38;90.79199;94832.08;;;;
2021/07/31 00:43:47;;;;;;;7.750001;6.1;;;;;;;17.21;92.30273;94819.45;;;;
2021/07/31 00:44:48;;;;;;;7.750001;6.1;;;;;;;17.21;92.30273;94819.45;;;;
2021/07/31 00:45:48;;;;;;;7.750001;6.1;;;;;;;17.21;92.30273;94819.45;;;;
2021/07/31 00:46:49;;;;;;;7.750001;6.1;;;;;;;17.21;92.30273;94819.45;;;;
2021/07/31 00:47:50;;;;;;;7.750001;6.1;;;;;;;17.21;92.30273;94819.45;;;;
2021/07/31 00:48:51;;;;;;;7.750001;6.1;;;;;;;17.21;92.30273;94819.45;;;;
2021/07/31 00:49:52;;;;;;;7.750001;6.1;;;;;;;17.21;92.30273;94819.45;;;;
2021/07/31 00:50:52;;;;;;;7.750001;6.1;;;;;;;17.21;92.30273;94819.45;;;;
2021/07/31 00:51:53;;;;;;;7.750001;6.1;;;;;;;17.21;92.30273;94819.45;;;;
2021/07/31 00:52:53;;;;;;;7.750001;6.1;;;;;;;17.21;92.30273;94819.45;;;;
2021/07/31 00:53:55;;;;;;;6.7;6;;;;;;;17.15;94.12695;94808.31;;;;
2021/07/31 00:54:55;;;;;;;6.7;6;;;;;;;17.15;94.12695;94808.31;;;;
2021/07/31 00:55:59;;;;;;;6.7;6;;;;;;;17.15;94.12695;94808.31;;;;
2021/07/31 00:57:00;;;;;;;6.7;6;;;;;;;17.15;94.12695;94808.31;;;;
2021/07/31 00:58:01;;;;;;;6.7;6;;;;;;;17.15;94.12695;94808.31;;;;
2021/07/31 00:59:02;;;;;;;6.7;6;;;;;;;17.15;94.12695;94808.31;;;;
2021/07/31 01:00:02;;;;;;;6.7;6;;;;;;;17.15;94.12695;94808.31;;;;
2021/07/31 01:01:04;;;;;;;6.7;6;;;;;;;17.15;94.12695;94808.31;;;;
2021/07/31 01:02:05;;;;;;;6.7;6;;;;;;;17.15;94.12695;94808.31;;;;
2021/07/31 01:03:05;;;;;;;6.7;6;;;;;;;17.15;94.12695;94808.31;;;;
2021/07/31 01:04:06;;;;;;;6.7;6;;;;;;;17.15;94.12695;94808.31;;;;
2021/07/31 01:05:07;;;;;;;6.699998;5.7;;;;;;;17.03;95.58887;94811.58;;;;
2021/07/31 01:06:08;;;;;;;6.699998;5.7;;;;;;;17.03;95.58887;94811.58;;;;
2021/07/31 01:07:08;;;;;;;6.699998;5.7;;;;;;;17.03;95.58887;94811.58;;;;
2021/07/31 01:08:09;;;;;;;6.699998;5.7;;;;;;;17.03;95.58887;94811.58;;;;
2021/07/31 01:09:09;;;;;;;6.699998;5.7;;;;;;;17.03;95.58887;94811.58;;;;
2021/07/31 01:10:10;;;;;;;6.699998;5.7;;;;;;;17.03;95.58887;94811.58;;;;
2021/07/31 01:11:12;;;;;;;6.699998;5.7;;;;;;;17.03;95.58887;94811.58;;;;
2021/07/31 01:12:13;;;;;;;6.699998;5.7;;;;;;;17.03;95.58887;94811.58;;;;
2021/07/31 01:13:13;;;;;;;6.699998;5.7;;;;;;;17.03;95.58887;94811.58;;;;
2021/07/31 01:14:14;;;;;;;6.699998;5.7;;;;;;;17.03;95.58887;94811.58;;;;
2021/07/31 01:15:15;;;;;;;6.050001;5.45;;;;;;;17.03;96.98047;94817.03;;;;
2021/07/31 01:16:16;;;;;;;6.050001;5.45;;;;;;;17.03;96.98047;94817.03;;;;
2021/07/31 01:17:17;;;;;;;6.050001;5.45;;;;;;;17.03;96.98047;94817.03;;;;
2021/07/31 01:18:18;;;;;;;6.050001;5.45;;;;;;;17.03;96.98047;94817.03;;;;
2021/07/31 01:19:18;;;;;;;6.050001;5.45;;;;;;;17.03;96.98047;94817.03;;;;
2021/07/31 01:20:18;;;;;;;6.050001;5.45;;;;;;;17.03;96.98047;94817.03;;;;
2021/07/31 01:21:19;;;;;;;6.050001;5.45;;;;;;;17.03;96.98047;94817.03;;;;
2021/07/31 01:22:38;;;;;;;6.050001;5.45;;;;;;;17.03;96.98047;94817.03;;;;
2021/07/31 01:23:38;;;;;;;6.050001;5.45;;;;;;;17.03;96.98047;94817.03;;;;
2021/07/31 01:24:39;;;;;;;6.050001;5.45;;;;;;;17.03;96.98047;94817.03;;;;
2021/07/31 01:25:39;;;;;;;6.050001;5.45;;;;;;;17.03;96.98047;94817.03;;;;
2021/07/31 01:26:40;;;;;;;8.799999;6.249999;;;;;;;16.93;98.02734;94818.5;;;;
2021/07/31 01:27:42;;;;;;;8.799999;6.249999;;;;;;;16.93;98.02734;94818.5;;;;
2021/07/31 01:28:43;;;;;;;8.799999;6.249999;;;;;;;16.93;98.02734;94818.5;;;;
2021/07/31 01:29:43;;;;;;;8.799999;6.249999;;;;;;;16.93;98.02734;94818.5;;;;
2021/07/31 01:30:44;;;;;;;8.799999;6.249999;;;;;;;16.93;98.02734;94818.5;;;;
2021/07/31 01:31:44;;;;;;;8.799999;6.249999;;;;;;;16.93;98.02734;94818.5;;;;
2021/07/31 01:32:46;;;;;;;8.799999;6.249999;;;;;;;16.93;98.02734;94818.5;;;;
2021/07/31 01:33:47;;;;;;;8.799999;6.249999;;;;;;;16.93;98.02734;94818.5;;;;
2021/07/31 01:34:47;;;;;;;8.799999;6.249999;;;;;;;16.93;98.02734;94818.5;;;;
2021/07/31 01:35:48;;;;;;;8.799999;6.249999;;;;;;;16.93;98.02734;94818.5;;;;
2021/07/31 01:36:48;;;;;;;6.9;6.200001;;;;;;;16.97;99.67578;94822.67;;;;
2021/07/31 01:37:49;;;;;;;6.9;6.200001;;;;;;;16.97;99.67578;94822.67;;;;
2021/07/31 01:38:49;;;;;;;6.9;6.200001;;;;;;;16.97;99.67578;94822.67;;;;
2021/07/31 01:39:50;;;;;;;6.9;6.200001;;;;;;;16.97;99.67578;94822.67;;;;
2021/07/31 01:40:51;;;;;;;6.9;6.200001;;;;;;;16.97;99.67578;94822.67;;;;
2021/07/31 01:41:51;;;;;;;6.9;6.200001;;;;;;;16.97;99.67578;94822.67;;;;
2021/07/31 01:42:52;;;;;;;6.9;6.200001;;;;;;;16.97;99.67578;94822.67;;;;
2021/07/31 01:43:53;;;;;;;6.9;6.200001;;;;;;;16.97;99.67578;94822.67;;;;
2021/07/31 01:44:54;;;;;;;6.9;6.200001;;;;;;;16.97;99.67578;94822.67;;;;
2021/07/31 01:45:54;;;;;;;6.9;6.200001;;;;;;;16.97;99.67578;94822.67;;;;
2021/07/31 01:46:55;;;;;;;6.9;6.200001;;;;;;;16.97;99.67578;94822.67;;;;
2021/07/31 01:47:55;;;;;;;7.050001;6.099999;;;;;;;16.94;100;94819.98;;;;
2021/07/31 01:48:56;;;;;;;7.050001;6.099999;;;;;;;16.94;100;94819.98;;;;
2021/07/31 01:49:56;;;;;;;7.050001;6.099999;;;;;;;16.94;100;94819.98;;;;
2021/07/31 01:50:57;;;;;;;7.050001;6.099999;;;;;;;16.94;100;94819.98;;;;
2021/07/31 01:51:57;;;;;;;7.050001;6.099999;;;;;;;16.94;100;94819.98;;;;
2021/07/31 01:52:58;;;;;;;7.050001;6.099999;;;;;;;16.94;100;94819.98;;;;
2021/07/31 01:53:58;;;;;;;7.050001;6.099999;;;;;;;16.94;100;94819.98;;;;
2021/07/31 01:54:59;;;;;;;7.050001;6.099999;;;;;;;16.94;100;94819.98;;;;
2021/07/31 01:55:59;;;;;;;7.050001;6.099999;;;;;;;16.94;100;94819.98;;;;
2021/07/31 01:57:00;;;;;;;7.050001;6.099999;;;;;;;16.94;100;94819.98;;;;
2021/07/31 01:58:00;;;;;;;6.85;6.249999;;;;;;;17;100;94822.09;;;;
2021/07/31 01:59:01;;;;;;;6.85;6.249999;;;;;;;17;100;94822.09;;;;
2021/07/31 02:00:01;;;;;;;6.85;6.249999;;;;;;;17;100;94822.09;;;;
2021/07/31 02:01:02;;;;;;;6.85;6.249999;;;;;;;17;100;94822.09;;;;
2021/07/31 02:02:03;;;;;;;6.85;6.249999;;;;;;;17;100;94822.09;;;;
2021/07/31 02:03:04;;;;;;;6.85;6.249999;;;;;;;17;100;94822.09;;;;
2021/07/31 02:04:04;;;;;;;6.85;6.249999;;;;;;;17;100;94822.09;;;;
2021/07/31 02:05:05;;;;;;;6.85;6.249999;;;;;;;17;100;94822.09;;;;
2021/07/31 02:06:06;;;;;;;6.85;6.249999;;;;;;;17;100;94822.09;;;;
2021/07/31 02:07:07;;;;;;;6.85;6.249999;;;;;;;17;100;94822.09;;;;
2021/07/31 02:08:07;;;;;;;6.85;6.249999;;;;;;;17;100;94822.09;;;;
2021/07/31 02:09:08;;;;;;;7.55;6.65;;;;;;;17.04;100;94829.55;;;;
2021/07/31 02:10:08;;;;;;;7.55;6.65;;;;;;;17.04;100;94829.55;;;;
2021/07/31 02:11:10;;;;;;;7.55;6.65;;;;;;;17.04;100;94829.55;;;;
2021/07/31 02:12:11;;;;;;;7.55;6.65;;;;;;;17.04;100;94829.55;;;;
2021/07/31 02:13:11;;;;;;;7.55;6.65;;;;;;;17.04;100;94829.55;;;;
2021/07/31 02:14:12;;;;;;;7.55;6.65;;;;;;;17.04;100;94829.55;;;;
2021/07/31 02:15:12;;;;;;;7.55;6.65;;;;;;;17.04;100;94829.55;;;;
2021/07/31 02:16:13;;;;;;;7.55;6.65;;;;;;;17.04;100;94829.55;;;;
2021/07/31 02:17:21;;;;;;;7.55;6.65;;;;;;;17.04;100;94829.55;;;;
2021/07/31 02:18:21;;;;;;;7.55;6.65;;;;;;;17.04;100;94829.55;;;;
2021/07/31 02:19:22;;;;;;;6.699999;6.100001;;;;;;;17.13;100;94827.29;;;;
2021/07/31 02:20:22;;;;;;;6.699999;6.100001;;;;;;;17.13;100;94827.29;;;;
2021/07/31 02:21:23;;;;;;;6.699999;6.100001;;;;;;;17.13;100;94827.29;;;;
2021/07/31 02:22:24;;;;;;;6.699999;6.100001;;;;;;;17.13;100;94827.29;;;;
2021/07/31 02:23:24;;;;;;;6.699999;6.100001;;;;;;;17.13;100;94827.29;;;;
2021/07/31 02:24:24;;;;;;;6.699999;6.100001;;;;;;;17.13;100;94827.29;;;;
2021/07/31 02:25:25;;;;;;;6.699999;6.100001;;;;;;;17.13;100;94827.29;;;;
2021/07/31 02:26:26;;;;;;;6.699999;6.100001;;;;;;;17.13;100;94827.29;;;;
2021/07/31 02:27:26;;;;;;;6.699999;6.100001;;;;;;;17.13;100;94827.29;;;;
2021/07/31 02:28:26;;;;;;;6.699999;6.100001;;;;;;;17.13;100;94827.29;;;;
2021/07/31 02:29:27;;;;;;;6.699999;6.100001;;;;;;;17.13;100;94827.29;;;;
2021/07/31 02:30:27;;;;;;;7.05;6.349999;;;;;;;17.15;100;94826.46;;;;
2021/07/31 02:31:28;;;;;;;7.05;6.349999;;;;;;;17.15;100;94826.46;;;;
2021/07/31 02:32:29;;;;;;;7.05;6.349999;;;;;;;17.15;100;94826.46;;;;
2021/07/31 02:33:29;;;;;;;7.05;6.349999;;;;;;;17.15;100;94826.46;;;;
2021/07/31 02:34:30;;;;;;;7.05;6.349999;;;;;;;17.15;100;94826.46;;;;
2021/07/31 02:35:33;;;;;;;7.05;6.349999;;;;;;;17.15;100;94826.46;;;;
2021/07/31 02:36:34;;;;;;;7.05;6.349999;;;;;;;17.15;100;94826.46;;;;
2021/07/31 02:37:34;;;;;;;7.05;6.349999;;;;;;;17.15;100;94826.46;;;;
2021/07/31 02:38:36;;;;;;;7.05;6.349999;;;;;;;17.15;100;94826.46;;;;
2021/07/31 02:39:37;;;;;;;7.05;6.349999;;;;;;;17.15;100;94826.46;;;;
2021/07/31 02:40:38;;;;;;;7.300001;6.349999;;;;;;;17.23;100;94813.57;;;;
2021/07/31 02:41:38;;;;;;;7.300001;6.349999;;;;;;;17.23;100;94813.57;;;;
2021/07/31 02:42:39;;;;;;;7.300001;6.349999;;;;;;;17.23;100;94813.57;;;;
2021/07/31 02:43:39;;;;;;;7.300001;6.349999;;;;;;;17.23;100;94813.57;;;;
2021/07/31 02:44:40;;;;;;;7.300001;6.349999;;;;;;;17.23;100;94813.57;;;;
2021/07/31 02:45:40;;;;;;;7.300001;6.349999;;;;;;;17.23;100;94813.57;;;;
2021/07/31 02:46:41;;;;;;;7.300001;6.349999;;;;;;;17.23;100;94813.57;;;;
2021/07/31 02:47:41;;;;;;;7.300001;6.349999;;;;;;;17.23;100;94813.57;;;;
2021/07/31 02:48:42;;;;;;;7.300001;6.349999;;;;;;;17.23;100;94813.57;;;;
2021/07/31 02:49:43;;;;;;;7.300001;6.349999;;;;;;;17.23;100;94813.57;;;;
2021/07/31 02:50:43;;;;;;;7.300001;6.349999;;;;;;;17.23;100;94813.57;;;;
2021/07/31 02:51:44;;;;;;;7;5.950001;;;;;;;17.2;100;94804.16;;;;
2021/07/31 02:52:44;;;;;;;7;5.950001;;;;;;;17.2;100;94804.16;;;;
2021/07/31 02:53:45;;;;;;;7;5.950001;;;;;;;17.2;100;94804.16;;;;
2021/07/31 02:54:45;;;;;;;7;5.950001;;;;;;;17.2;100;94804.16;;;;
2021/07/31 02:55:46;;;;;;;7;5.950001;;;;;;;17.2;100;94804.16;;;;
2021/07/31 02:56:47;;;;;;;7;5.950001;;;;;;;17.2;100;94804.16;;;;
2021/07/31 02:57:47;;;;;;;7;5.950001;;;;;;;17.2;100;94804.16;;;;
2021/07/31 02:58:48;;;;;;;7;5.950001;;;;;;;17.2;100;94804.16;;;;
2021/07/31 02:59:49;;;;;;;7;5.950001;;;;;;;17.2;100;94804.16;;;;
2021/07/31 03:00:50;;;;;;;7;5.950001;;;;;;;17.2;100;94804.16;;;;
2021/07/31 03:01:50;;;;;;;7.2;6.6;;;;;;;17.21;100;94809.48;;;;
2021/07/31 03:02:51;;;;;;;7.2;6.6;;;;;;;17.21;100;94809.48;;;;
2021/07/31 03:03:51;;;;;;;7.2;6.6;;;;;;;17.21;100;94809.48;;;;
2021/07/31 03:04:52;;;;;;;7.2;6.6;;;;;;;17.21;100;94809.48;;;;
2021/07/31 03:05:53;;;;;;;7.2;6.6;;;;;;;17.21;100;94809.48;;;;
2021/07/31 03:06:54;;;;;;;7.2;6.6;;;;;;;17.21;100;94809.48;;;;
2021/07/31 03:07:55;;;;;;;7.2;6.6;;;;;;;17.21;100;94809.48;;;;
2021/07/31 03:08:56;;;;;;;7.2;6.6;;;;;;;17.21;100;94809.48;;;;
2021/07/31 03:09:56;;;;;;;7.2;6.6;;;;;;;17.21;100;94809.48;;;;
2021/07/31 03:10:57;;;;;;;7.2;6.6;;;;;;;17.21;100;94809.48;;;;
2021/07/31 03:11:59;;;;;;;7.2;6.6;;;;;;;17.21;100;94809.48;;;;
2021/07/31 03:13:00;;;;;;;6.8;6.199999;;;;;;;17.08;100;94798.71;;;;
2021/07/31 03:14:00;;;;;;;6.8;6.199999;;;;;;;17.08;100;94798.71;;;;
2021/07/31 03:15:01;;;;;;;6.8;6.199999;;;;;;;17.08;100;94798.71;;;;
2021/07/31 03:16:01;;;;;;;6.8;6.199999;;;;;;;17.08;100;94798.71;;;;
2021/07/31 03:17:02;;;;;;;6.8;6.199999;;;;;;;17.08;100;94798.71;;;;
2021/07/31 03:18:02;;;;;;;6.8;6.199999;;;;;;;17.08;100;94798.71;;;;
2021/07/31 03:19:03;;;;;;;6.8;6.199999;;;;;;;17.08;100;94798.71;;;;
2021/07/31 03:20:03;;;;;;;6.8;6.199999;;;;;;;17.08;100;94798.71;;;;
2021/07/31 03:21:05;;;;;;;6.8;6.199999;;;;;;;17.08;100;94798.71;;;;
2021/07/31 03:22:05;;;;;;;6.8;6.199999;;;;;;;17.08;100;94798.71;;;;
2021/07/31 03:23:06;;;;;;;7.3;6.599999;;;;;;;17.04;100;94793.97;;;;
2021/07/31 03:24:06;;;;;;;7.3;6.599999;;;;;;;17.04;100;94793.97;;;;
2021/07/31 03:25:07;;;;;;;7.3;6.599999;;;;;;;17.04;100;94793.97;;;;
2021/07/31 03:26:08;;;;;;;7.3;6.599999;;;;;;;17.04;100;94793.97;;;;
2021/07/31 03:27:09;;;;;;;7.3;6.599999;;;;;;;17.04;100;94793.97;;;;
2021/07/31 03:28:10;;;;;;;7.3;6.599999;;;;;;;17.04;100;94793.97;;;;
2021/07/31 03:29:11;;;;;;;7.3;6.599999;;;;;;;17.04;100;94793.97;;;;
2021/07/31 03:30:12;;;;;;;7.3;6.599999;;;;;;;17.04;100;94793.97;;;;
2021/07/31 03:31:13;;;;;;;7.3;6.599999;;;;;;;17.04;100;94793.97;;;;
2021/07/31 03:32:17;;;;;;;7.3;6.599999;;;;;;;17.04;100;94793.97;;;;
2021/07/31 03:33:18;;;;;;;7.3;6.599999;;;;;;;17.04;100;94793.97;;;;
2021/07/31 03:34:21;;;;;;;8.3;6.649999;;;;;;;16.89;100;94811.44;;;;
2021/07/31 03:35:21;;;;;;;8.3;6.649999;;;;;;;16.89;100;94811.44;;;;
2021/07/31 03:36:22;;;;;;;8.3;6.649999;;;;;;;16.89;100;94811.44;;;;
2021/07/31 03:37:22;;;;;;;8.3;6.649999;;;;;;;16.89;100;94811.44;;;;
2021/07/31 03:38:23;;;;;;;8.3;6.649999;;;;;;;16.89;100;94811.44;;;;
2021/07/31 03:39:23;;;;;;;8.3;6.649999;;;;;;;16.89;100;94811.44;;;;
2021/07/31 03:40:25;;;;;;;8.3;6.649999;;;;;;;16.89;100;94811.44;;;;
2021/07/31 03:41:26;;;;;;;8.3;6.649999;;;;;;;16.89;100;94811.44;;;;
2021/07/31 03:42:26;;;;;;;8.3;6.649999;;;;;;;16.89;100;94811.44;;;;
2021/07/31 03:43:27;;;;;;;8.3;6.649999;;;;;;;16.89;100;94811.44;;;;
2021/07/31 03:44:27;;;;;;;7.099999;6.45;;;;;;;16.89;100;94815.53;;;;
2021/07/31 03:45:28;;;;;;;7.099999;6.45;;;;;;;16.89;100;94815.53;;;;
2021/07/31 03:46:29;;;;;;;7.099999;6.45;;;;;;;16.89;100;94815.53;;;;
2021/07/31 03:47:29;;;;;;;7.099999;6.45;;;;;;;16.89;100;94815.53;;;;
2021/07/31 03:48:30;;;;;;;7.099999;6.45;;;;;;;16.89;100;94815.53;;;;
2021/07/31 03:49:30;;;;;;;7.099999;6.45;;;;;;;16.89;100;94815.53;;;;
2021/07/31 03:50:31;;;;;;;7.099999;6.45;;;;;;;16.89;100;94815.53;;;;
2021/07/31 03:51:31;;;;;;;7.099999;6.45;;;;;;;16.89;100;94815.53;;;;
2021/07/31 03:52:32;;;;;;;7.099999;6.45;;;;;;;16.89;100;94815.53;;;;
2021/07/31 03:53:32;;;;;;;7.099999;6.45;;;;;;;16.89;100;94815.53;;;;
2021/07/31 03:54:33;;;;;;;7.099999;6.45;;;;;;;16.89;100;94815.53;;;;
2021/07/31 03:55:35;;;;;;;6.95;6.25;;;;;;;16.79;100;94813.29;;;;
2021/07/31 03:56:36;;;;;;;6.95;6.25;;;;;;;16.79;100;94813.29;;;;
2021/07/31 03:57:36;;;;;;;6.95;6.25;;;;;;;16.79;100;94813.29;;;;
2021/07/31 03:58:37;;;;;;;6.95;6.25;;;;;;;16.79;100;94813.29;;;;
2021/07/31 03:59:37;;;;;;;6.95;6.25;;;;;;;16.79;100;94813.29;;;;
2021/07/31 04:00:38;;;;;;;6.95;6.25;;;;;;;16.79;100;94813.29;;;;
2021/07/31 04:01:39;;;;;;;6.95;6.25;;;;;;;16.79;100;94813.29;;;;
2021/07/31 04:02:39;;;;;;;6.95;6.25;;;;;;;16.79;100;94813.29;;;;
2021/07/31 04:03:40;;;;;;;6.95;6.25;;;;;;;16.79;100;94813.29;;;;
2021/07/31 04:04:40;;;;;;;6.95;6.25;;;;;;;16.79;100;94813.29;;;;
2021/07/31 04:05:41;;;;;;;6.95;6.25;;;;;;;16.79;100;94813.29;;;;
2021/07/31 04:06:41;;;;;;;7.2;6.5;;;;;;;16.8;100;94821.88;;;;
2021/07/31 04:07:42;;;;;;;7.2;6.5;;;;;;;16.8;100;94821.88;;;;
2021/07/31 04:08:42;;;;;;;7.2;6.5;;;;;;;16.8;100;94821.88;;;;
2021/07/31 04:09:43;;;;;;;7.2;6.5;;;;;;;16.8;100;94821.88;;;;
2021/07/31 04:10:44;;;;;;;7.2;6.5;;;;;;;16.8;100;94821.88;;;;
2021/07/31 04:11:44;;;;;;;7.2;6.5;;;;;;;16.8;100;94821.88;;;;
2021/07/31 04:12:45;;;;;;;7.2;6.5;;;;;;;16.8;100;94821.88;;;;
2021/07/31 04:13:45;;;;;;;7.2;6.5;;;;;;;16.8;100;94821.88;;;;
2021/07/31 04:14:46;;;;;;;7.2;6.5;;;;;;;16.8;100;94821.88;;;;
2021/07/31 04:15:46;;;;;;;7.2;6.5;;;;;;;16.8;100;94821.88;;;;
2021/07/31 04:16:47;;;;;;;7.7;6.299999;;;;;;;16.83;100;94814.89;;;;
2021/07/31 04:17:47;;;;;;;7.7;6.299999;;;;;;;16.83;100;94814.89;;;;
2021/07/31 04:18:48;;;;;;;7.7;6.299999;;;;;;;16.83;100;94814.89;;;;
2021/07/31 04:19:48;;;;;;;7.7;6.299999;;;;;;;16.83;100;94814.89;;;;
2021/07/31 04:20:50;;;;;;;7.7;6.299999;;;;;;;16.83;100;94814.89;;;;
2021/07/31 04:21:53;;;;;;;7.7;6.299999;;;;;;;16.83;100;94814.89;;;;
2021/07/31 04:22:54;;;;;;;7.7;6.299999;;;;;;;16.83;100;94814.89;;;;
2021/07/31 04:23:55;;;;;;;7.7;6.299999;;;;;;;16.83;100;94814.89;;;;
2021/07/31 04:24:55;;;;;;;7.7;6.299999;;;;;;;16.83;100;94814.89;;;;
2021/07/31 04:25:56;;;;;;;7.7;6.299999;;;;;;;16.83;100;94814.89;;;;
2021/07/31 04:26:56;;;;;;;7.7;6.299999;;;;;;;16.83;100;94814.89;;;;
2021/07/31 04:27:57;;;;;;;7.05;6.349999;;;;;;;16.93;100;94814.79;;;;
2021/07/31 04:28:57;;;;;;;7.05;6.349999;;;;;;;16.93;100;94814.79;;;;
2021/07/31 04:29:58;;;;;;;7.05;6.349999;;;;;;;16.93;100;94814.79;;;;
2021/07/31 04:30:59;;;;;;;7.05;6.349999;;;;;;;16.93;100;94814.79;;;;
2021/07/31 04:32:06;;;;;;;7.05;6.349999;;;;;;;16.93;100;94814.79;;;;
2021/07/31 04:33:07;;;;;;;7.05;6.349999;;;;;;;16.93;100;94814.79;;;;
2021/07/31 04:34:07;;;;;;;7.05;6.349999;;;;;;;16.93;100;94814.79;;;;
2021/07/31 04:35:08;;;;;;;7.05;6.349999;;;;;;;16.93;100;94814.79;;;;
2021/07/31 04:36:09;;;;;;;7.05;6.349999;;;;;;;16.93;100;94814.79;;;;
2021/07/31 04:37:10;;;;;;;7.05;6.349999;;;;;;;16.93;100;94814.79;;;;
2021/07/31 04:38:11;;;;;;;6.4;5.799999;;;;;;;17.01;100;94804.1;;;;
2021/07/31 04:39:11;;;;;;;6.4;5.799999;;;;;;;17.01;100;94804.1;;;;
2021/07/31 04:40:12;;;;;;;6.4;5.799999;;;;;;;17.01;100;94804.1;;;;
2021/07/31 04:41:13;;;;;;;6.4;5.799999;;;;;;;17.01;100;94804.1;;;;
2021/07/31 04:42:14;;;;;;;6.4;5.799999;;;;;;;17.01;100;94804.1;;;;
2021/07/31 04:43:14;;;;;;;6.4;5.799999;;;;;;;17.01;100;94804.1;;;;
2021/07/31 04:44:15;;;;;;;6.4;5.799999;;;;;;;17.01;100;94804.1;;;;
2021/07/31 04:45:15;;;;;;;6.4;5.799999;;;;;;;17.01;100;94804.1;;;;
2021/07/31 04:46:16;;;;;;;6.4;5.799999;;;;;;;17.01;100;94804.1;;;;
2021/07/31 04:47:16;;;;;;;6.4;5.799999;;;;;;;17.01;100;94804.1;;;;
2021/07/31 04:48:17;;;;;;;6.4;5.799999;;;;;;;17.01;100;94804.1;;;;
2021/07/31 04:49:17;;;;;;;6.35;5.750001;;;;;;;17.13;100;94804.64;;;;
2021/07/31 04:50:18;;;;;;;6.35;5.750001;;;;;;;17.13;100;94804.64;;;;
2021/07/31 04:51:18;;;;;;;6.35;5.750001;;;;;;;17.13;100;94804.64;;;;
2021/07/31 04:52:19;;;;;;;6.35;5.750001;;;;;;;17.13;100;94804.64;;;;
2021/07/31 04:53:19;;;;;;;6.35;5.750001;;;;;;;17.13;100;94804.64;;;;
2021/07/31 04:54:20;;;;;;;6.35;5.750001;;;;;;;17.13;100;94804.64;;;;
2021/07/31 04:55:20;;;;;;;6.35;5.750001;;;;;;;17.13;100;94804.64;;;;
2021/07/31 04:56:21;;;;;;;6.35;5.750001;;;;;;;17.13;100;94804.64;;;;
2021/07/31 04:57:21;;;;;;;6.35;5.750001;;;;;;;17.13;100;94804.64;;;;
2021/07/31 04:58:22;;;;;;;6.35;5.750001;;;;;;;17.13;100;94804.64;;;;
2021/07/31 04:59:23;;;;;;;6.7;6.05;;;;;;;17.23;100;94802.66;;;;
2021/07/31 05:00:23;;;;;;;6.7;6.05;;;;;;;17.23;100;94802.66;;;;
2021/07/31 05:01:24;;;;;;;6.7;6.05;;;;;;;17.23;100;94802.66;;;;
2021/07/31 05:02:24;;;;;;;6.7;6.05;;;;;;;17.23;100;94802.66;;;;
2021/07/31 05:03:25;;;;;;;6.7;6.05;;;;;;;17.23;100;94802.66;;;;
2021/07/31 05:04:27;;;;;;;6.7;6.05;;;;;;;17.23;100;94802.66;;;;
2021/07/31 05:05:27;;;;;;;6.7;6.05;;;;;;;17.23;100;94802.66;;;;
2021/07/31 05:06:29;;;;;;;6.7;6.05;;;;;;;17.23;100;94802.66;;;;
2021/07/31 05:07:30;;;;;;;6.7;6.05;;;;;;;17.23;100;94802.66;;;;
2021/07/31 05:08:30;;;;;;;6.7;6.05;;;;;;;17.23;100;94802.66;;;;
2021/07/31 05:09:31;;;;;;;6.7;6.05;;;;;;;17.23;100;94802.66;;;;
2021/07/31 05:10:33;;;;;;;7.2;5.900001;;;;;;;17.49;100;94810.85;;;;
2021/07/31 05:11:36;;;;;;;7.2;5.900001;;;;;;;17.49;100;94810.85;;;;
2021/07/31 05:12:37;;;;;;;7.2;5.900001;;;;;;;17.49;100;94810.85;;;;
2021/07/31 05:13:37;;;;;;;7.2;5.900001;;;;;;;17.49;100;94810.85;;;;
2021/07/31 05:14:38;;;;;;;7.2;5.900001;;;;;;;17.49;100;94810.85;;;;
2021/07/31 05:15:38;;;;;;;7.2;5.900001;;;;;;;17.49;100;94810.85;;;;
2021/07/31 05:16:40;;;;;;;7.2;5.900001;;;;;;;17.49;100;94810.85;;;;
2021/07/31 05:17:41;;;;;;;7.2;5.900001;;;;;;;17.49;100;94810.85;;;;
2021/07/31 05:18:41;;;;;;;7.2;5.900001;;;;;;;17.49;100;94810.85;;;;
2021/07/31 05:19:42;;;;;;;7.2;5.900001;;;;;;;17.49;100;94810.85;;;;
2021/07/31 05:20:43;;;;;;;6.250001;5.65;;;;;;;17.74;100;94813.83;;;;
2021/07/31 05:21:45;;;;;;;6.250001;5.65;;;;;;;17.74;100;94813.83;;;;
2021/07/31 05:22:46;;;;;;;6.250001;5.65;;;;;;;17.74;100;94813.83;;;;
2021/07/31 05:23:46;;;;;;;6.250001;5.65;;;;;;;17.74;100;94813.83;;;;
2021/07/31 05:24:53;;;;;;;6.250001;5.65;;;;;;;17.74;100;94813.83;;;;
2021/07/31 05:25:53;;;;;;;6.250001;5.65;;;;;;;17.74;100;94813.83;;;;
2021/07/31 05:26:54;;;;;;;6.250001;5.65;;;;;;;17.74;100;94813.83;;;;
2021/07/31 05:27:54;;;;;;;6.250001;5.65;;;;;;;17.74;100;94813.83;;;;
2021/07/31 05:28:55;;;;;;;6.250001;5.65;;;;;;;17.74;100;94813.83;;;;
2021/07/31 05:29:55;;;;;;;6.250001;5.65;;;;;;;17.74;100;94813.83;;;;
2021/07/31 05:30:56;;;;;;;6.250001;5.65;;;;;;;17.74;100;94813.83;;;;
2021/07/31 05:31:56;;;;;;;6.100001;5.55;;;;;;;18.27;100;94827.62;;;;
2021/07/31 05:32:57;;;;;;;6.100001;5.55;;;;;;;18.27;100;94827.62;;;;
2021/07/31 05:33:57;;;;;;;6.100001;5.55;;;;;;;18.27;100;94827.62;;;;
2021/07/31 05:34:58;;;;;;;6.100001;5.55;;;;;;;18.27;100;94827.62;;;;
2021/07/31 05:35:58;;;;;;;6.100001;5.55;;;;;;;18.27;100;94827.62;;;;
2021/07/31 05:37:06;;;;;;;6.100001;5.55;;;;;;;18.27;100;94827.62;;;;
2021/07/31 05:38:07;;;;;;;6.100001;5.55;;;;;;;18.27;100;94827.62;;;;
2021/07/31 05:39:07;;;;;;;6.100001;5.55;;;;;;;18.27;100;94827.62;;;;
2021/07/31 05:40:08;;;;;;;6.100001;5.55;;;;;;;18.27;100;94827.62;;;;
2021/07/31 05:41:10;;;;;;;6.100001;5.55;;;;;;;18.27;100;94827.62;;;;
2021/07/31 05:42:13;;;;;;;5.749999;5.25;;;;;;;18.52;100;94824.14;;;;
2021/07/31 05:43:13;;;;;;;5.749999;5.25;;;;;;;18.52;100;94824.14;;;;
2021/07/31 05:44:14;;;;;;;5.749999;5.25;;;;;;;18.52;100;94824.14;;;;
2021/07/31 05:45:14;;;;;;;5.749999;5.25;;;;;;;18.52;100;94824.14;;;;
2021/07/31 05:46:15;;;;;;;5.749999;5.25;;;;;;;18.52;100;94824.14;;;;
2021/07/31 05:47:17;;;;;;;5.749999;5.25;;;;;;;18.52;100;94824.14;;;;